createdAt,value
2017-12-12T00:01:08.493Z,4.10
2017-12-12T00:03:35.942Z,4.10
2017-12-12T00:06:13.739Z,4.10
2017-12-12T00:08:41.194Z,4.10
2017-12-12T00:11:08.636Z,4.00
2017-12-12T00:13:36.208Z,4.00
2017-12-12T00:16:03.731Z,4.00
2017-12-12T00:18:32.649Z,4.00
2017-12-12T00:21:00.858Z,4.00
2017-12-12T00:23:28.400Z,4.00
2017-12-12T00:25:55.841Z,4.00
2017-12-12T00:28:23.319Z,4.00
2017-12-12T00:30:50.753Z,4.00
2017-12-12T00:33:18.998Z,4.00
2017-12-12T00:35:46.441Z,4.00
2017-12-12T00:38:13.885Z,4.00
2017-12-12T00:40:50.826Z,4.00
2017-12-12T00:43:18.753Z,4.00
2017-12-12T00:45:46.214Z,4.00
2017-12-12T00:48:13.673Z,4.00
2017-12-12T00:50:41.170Z,4.00
2017-12-12T00:53:09.368Z,3.90
2017-12-12T00:55:36.818Z,3.90
2017-12-12T00:58:04.258Z,4.00
2017-12-12T01:00:32.473Z,3.90
2017-12-12T01:02:59.914Z,3.90
2017-12-12T01:05:27.361Z,3.90
2017-12-12T01:07:54.812Z,4.00
2017-12-12T01:10:23.018Z,4.00
2017-12-12T01:12:50.470Z,3.90
2017-12-12T01:15:17.925Z,3.90
2017-12-12T01:17:45.365Z,3.90
2017-12-12T01:20:12.809Z,3.90
2017-12-12T01:22:41.014Z,3.90
2017-12-12T01:25:08.465Z,3.90
2017-12-12T01:27:35.906Z,3.90
2017-12-12T01:30:04.113Z,3.90
2017-12-12T01:32:31.605Z,3.90
2017-12-12T01:34:59.040Z,3.90
2017-12-12T01:37:26.525Z,3.90
2017-12-12T01:39:53.952Z,3.90
2017-12-12T01:42:21.405Z,3.90
2017-12-12T01:44:48.860Z,3.90
2017-12-12T01:47:16.316Z,3.90
2017-12-12T01:49:43.753Z,3.90
2017-12-12T01:52:11.202Z,3.90
2017-12-12T01:54:39.420Z,3.90
2017-12-12T01:57:06.925Z,3.90
2017-12-12T01:59:34.359Z,3.90
2017-12-12T02:02:01.813Z,3.90
2017-12-12T02:04:29.258Z,4.00
2017-12-12T02:06:56.773Z,3.90
2017-12-12T02:09:24.991Z,3.90
2017-12-12T02:11:52.475Z,3.90
2017-12-12T02:14:19.909Z,3.90
2017-12-12T02:16:47.365Z,3.90
2017-12-12T02:19:14.812Z,3.90
2017-12-12T02:21:42.284Z,3.90
2017-12-12T02:24:09.758Z,3.90
2017-12-12T02:26:37.201Z,3.90
2017-12-12T02:29:04.646Z,3.90
2017-12-12T02:31:32.094Z,4.00
2017-12-12T02:33:59.556Z,4.00
2017-12-12T02:36:26.997Z,4.00
2017-12-12T02:38:54.459Z,4.00
2017-12-12T02:41:21.981Z,4.00
2017-12-12T02:43:49.422Z,4.00
2017-12-12T02:46:16.945Z,4.00
2017-12-12T02:48:44.403Z,4.00
2017-12-12T02:51:11.838Z,4.10
2017-12-12T02:53:40.077Z,4.10
2017-12-12T02:56:07.533Z,4.10
2017-12-12T02:58:34.996Z,4.10
2017-12-12T03:01:02.459Z,4.10
2017-12-12T03:03:29.909Z,4.10
2017-12-12T03:05:57.356Z,4.10
2017-12-12T03:08:24.797Z,4.10
2017-12-12T03:10:52.246Z,4.10
2017-12-12T03:13:19.742Z,4.10
2017-12-12T03:15:47.209Z,4.00
2017-12-12T03:18:14.687Z,4.10
2017-12-12T03:20:42.922Z,4.10
2017-12-12T03:23:10.391Z,4.00
2017-12-12T03:25:37.866Z,4.00
2017-12-12T03:28:06.083Z,4.00
2017-12-12T03:30:33.536Z,4.00
2017-12-12T03:33:00.974Z,4.00
2017-12-12T03:35:29.194Z,4.00
2017-12-12T03:37:57.347Z,4.00
2017-12-12T03:40:24.801Z,4.10
2017-12-12T03:42:52.237Z,4.10
2017-12-12T03:45:20.458Z,4.10
2017-12-12T03:47:47.894Z,4.10
2017-12-12T03:50:15.343Z,4.10
2017-12-12T03:52:42.785Z,4.00
2017-12-12T03:55:11.007Z,4.00
2017-12-12T03:57:38.455Z,4.00
2017-12-12T04:00:05.911Z,4.00
2017-12-12T04:02:33.370Z,3.90
2017-12-12T04:05:00.825Z,3.90
2017-12-12T04:07:28.266Z,3.90
2017-12-12T04:09:55.727Z,3.90
2017-12-12T04:12:23.182Z,4.00
2017-12-12T04:14:51.382Z,4.00
2017-12-12T04:17:18.833Z,4.00
2017-12-12T04:19:46.290Z,4.10
2017-12-12T04:22:13.733Z,4.10
2017-12-12T04:24:41.168Z,4.10
2017-12-12T04:27:09.387Z,4.20
2017-12-12T04:29:36.834Z,4.20
2017-12-12T04:32:04.280Z,4.20
2017-12-12T04:34:32.486Z,4.30
2017-12-12T04:36:59.937Z,4.30
2017-12-12T04:39:27.373Z,4.30
2017-12-12T04:41:54.831Z,4.30
2017-12-12T04:44:23.038Z,4.40
2017-12-12T04:46:50.494Z,4.40
2017-12-12T04:49:17.941Z,4.50
2017-12-12T04:51:45.388Z,4.50
2017-12-12T04:54:12.846Z,4.50
2017-12-12T04:56:40.290Z,4.50
2017-12-12T04:59:08.501Z,4.50
2017-12-12T05:01:35.945Z,4.50
2017-12-12T05:04:03.394Z,4.50
2017-12-12T05:06:30.840Z,4.50
2017-12-12T05:08:59.065Z,4.70
2017-12-12T05:11:26.509Z,4.60
2017-12-12T05:13:53.970Z,4.60
2017-12-12T05:16:21.428Z,4.60
2017-12-12T05:18:48.887Z,4.60
2017-12-12T05:21:16.332Z,4.70
2017-12-12T05:23:43.777Z,4.70
2017-12-12T05:26:11.228Z,4.60
2017-12-12T05:28:38.664Z,4.60
2017-12-12T05:31:06.879Z,4.70
2017-12-12T05:33:34.324Z,4.70
2017-12-12T05:36:01.783Z,4.70
2017-12-12T05:38:45.191Z,4.70
2017-12-12T05:41:13.420Z,4.80
2017-12-12T05:43:47.697Z,4.80
2017-12-12T05:46:17.776Z,4.80
2017-12-12T05:48:47.581Z,4.70
2017-12-12T05:51:15.054Z,4.80
2017-12-12T05:53:42.505Z,4.80
2017-12-12T05:56:10.062Z,4.80
2017-12-12T05:58:37.521Z,4.80
2017-12-12T06:01:06.929Z,4.80
2017-12-12T06:03:35.588Z,4.70
2017-12-12T06:06:04.472Z,4.70
2017-12-12T06:08:31.967Z,4.70
2017-12-12T06:11:03.420Z,4.40
2017-12-12T06:13:30.962Z,4.60
2017-12-12T06:15:58.408Z,4.50
2017-12-12T06:18:25.844Z,4.50
2017-12-12T06:20:54.070Z,4.40
2017-12-12T06:23:21.510Z,4.30
2017-12-12T06:25:48.954Z,4.30
2017-12-12T06:28:17.261Z,4.20
2017-12-12T06:30:44.742Z,4.20
2017-12-12T06:33:12.203Z,4.10
2017-12-12T06:35:40.302Z,3.90
2017-12-12T06:38:07.781Z,3.90
2017-12-12T06:40:35.257Z,3.80
2017-12-12T06:43:02.718Z,3.70
2017-12-12T06:45:30.168Z,3.60
2017-12-12T06:47:57.626Z,3.50
2017-12-12T06:50:25.942Z,3.40
2017-12-12T06:52:53.387Z,3.30
2017-12-12T06:55:20.834Z,3.20
2017-12-12T06:57:48.301Z,3.20
2017-12-12T07:00:15.746Z,3.20
2017-12-12T07:02:43.214Z,3.20
2017-12-12T07:05:10.658Z,3.30
2017-12-12T07:07:38.135Z,3.20
2017-12-12T07:10:16.369Z,3.20
2017-12-12T07:12:43.825Z,3.20
2017-12-12T07:15:11.278Z,3.20
2017-12-12T07:17:38.744Z,3.20
2017-12-12T07:20:06.978Z,3.30
2017-12-12T07:22:34.417Z,3.30
2017-12-12T07:25:01.875Z,3.40
2017-12-12T07:27:29.317Z,3.40
2017-12-12T07:29:57.551Z,3.40
2017-12-12T07:32:24.995Z,3.40
2017-12-12T07:34:52.445Z,3.40
2017-12-12T07:37:19.910Z,3.40
2017-12-12T07:39:47.355Z,3.30
2017-12-12T07:42:14.794Z,3.40
2017-12-12T07:44:42.238Z,3.40
2017-12-12T07:47:10.450Z,3.20
2017-12-12T07:49:37.890Z,3.30
2017-12-12T07:52:05.333Z,3.20
2017-12-12T07:54:33.554Z,3.30
2017-12-12T07:57:01.006Z,3.30
2017-12-12T07:59:28.454Z,3.30
2017-12-12T08:01:55.911Z,3.30
2017-12-12T08:04:23.353Z,3.20
2017-12-12T08:06:50.836Z,3.20
2017-12-12T08:09:18.285Z,3.20
2017-12-12T08:11:45.733Z,3.20
2017-12-12T08:14:13.191Z,3.20
2017-12-12T08:16:40.658Z,3.30
2017-12-12T08:19:08.114Z,3.20
2017-12-12T08:21:35.574Z,3.20
2017-12-12T08:24:03.017Z,3.20
2017-12-12T08:26:30.502Z,3.20
2017-12-12T08:28:57.950Z,3.20
2017-12-12T08:31:25.406Z,3.20
2017-12-12T08:33:52.861Z,3.20
2017-12-12T08:36:20.310Z,3.10
2017-12-12T08:38:47.762Z,3.20
2017-12-12T08:41:15.197Z,3.20
2017-12-12T08:43:43.419Z,3.20
2017-12-12T08:46:10.864Z,3.20
2017-12-12T08:48:38.362Z,3.20
2017-12-12T08:51:05.819Z,3.30
2017-12-12T08:53:34.069Z,3.40
2017-12-12T08:56:01.531Z,3.40
2017-12-12T08:58:28.998Z,3.40
2017-12-12T09:00:56.454Z,3.50
2017-12-12T09:03:23.912Z,3.50
2017-12-12T09:05:51.350Z,3.60
2017-12-12T09:08:18.797Z,3.60
2017-12-12T09:10:46.257Z,3.70
2017-12-12T09:13:13.700Z,3.70
2017-12-12T09:15:41.922Z,3.90
2017-12-12T09:18:09.365Z,3.90
2017-12-12T09:20:36.845Z,3.80
2017-12-12T09:23:04.300Z,3.80
2017-12-12T09:25:31.735Z,3.80
2017-12-12T09:27:59.186Z,3.70
2017-12-12T09:30:26.642Z,3.80
2017-12-12T09:32:54.094Z,3.80
2017-12-12T09:35:21.533Z,3.80
2017-12-12T09:37:49.754Z,3.70
2017-12-12T09:40:17.204Z,3.60
2017-12-12T09:42:44.677Z,3.60
2017-12-12T09:45:12.130Z,3.50
2017-12-12T09:47:39.589Z,3.30
2017-12-12T09:50:07.051Z,3.30
2017-12-12T09:52:34.489Z,3.30
2017-12-12T09:55:01.946Z,3.30
2017-12-12T09:57:29.389Z,3.40
2017-12-12T09:59:56.845Z,3.50
2017-12-12T10:02:24.285Z,3.70
2017-12-12T10:04:52.498Z,4.00
2017-12-12T10:07:19.946Z,4.00
2017-12-12T10:09:47.398Z,4.10
2017-12-12T10:12:14.852Z,4.20
2017-12-12T10:14:43.065Z,4.20
2017-12-12T10:17:10.511Z,4.20
2017-12-12T10:19:38.025Z,4.40
2017-12-12T10:22:05.410Z,4.40
2017-12-12T10:24:32.867Z,4.40
2017-12-12T10:27:00.314Z,4.50
2017-12-12T10:29:27.776Z,4.40
2017-12-12T10:31:55.217Z,4.30
2017-12-12T10:34:23.434Z,4.20
2017-12-12T10:36:50.905Z,4.30
2017-12-12T10:39:18.344Z,4.40
2017-12-12T10:41:45.810Z,4.40
2017-12-12T10:44:13.284Z,4.40
2017-12-12T10:46:40.742Z,4.30
2017-12-12T10:49:08.186Z,4.20
2017-12-12T10:51:35.642Z,4.20
2017-12-12T10:54:03.089Z,4.20
2017-12-12T10:56:30.544Z,4.20
2017-12-12T10:58:58.019Z,4.30
2017-12-12T11:01:25.491Z,4.20
2017-12-12T11:03:52.933Z,4.20
2017-12-12T11:06:20.381Z,4.20
2017-12-12T11:08:47.843Z,4.30
2017-12-12T11:11:15.298Z,4.40
2017-12-12T11:13:42.775Z,4.50
2017-12-12T11:16:10.217Z,4.50
2017-12-12T11:18:37.666Z,4.60
2017-12-12T11:21:05.122Z,4.60
2017-12-12T11:23:32.592Z,4.60
2017-12-12T11:26:00.029Z,4.60
2017-12-12T11:28:28.242Z,4.40
2017-12-12T11:30:55.698Z,4.40
2017-12-12T11:33:23.429Z,4.40
2017-12-12T11:35:50.929Z,4.30
2017-12-12T11:38:18.371Z,4.20
2017-12-12T11:40:45.827Z,4.10
2017-12-12T11:43:13.320Z,4.00
2017-12-12T11:45:40.767Z,3.90
2017-12-12T11:48:08.214Z,3.90
2017-12-12T11:50:35.673Z,3.80
2017-12-12T11:53:03.877Z,3.80
2017-12-12T11:55:31.338Z,3.80
2017-12-12T11:57:58.766Z,3.80
2017-12-12T12:00:26.232Z,3.90
2017-12-12T12:02:53.704Z,3.80
2017-12-12T12:05:21.199Z,3.80
2017-12-12T12:07:49.406Z,3.70
2017-12-12T12:10:16.858Z,3.70
2017-12-12T12:12:44.314Z,3.70
2017-12-12T12:15:11.764Z,3.80
2017-12-12T12:17:39.202Z,3.70
2017-12-12T12:20:07.422Z,3.60
2017-12-12T12:22:47.326Z,3.60
2017-12-12T12:25:15.546Z,3.50
2017-12-12T12:27:42.993Z,3.50
2017-12-12T12:30:10.445Z,3.40
2017-12-12T12:32:39.099Z,3.40
2017-12-12T12:35:07.398Z,3.40
2017-12-12T12:37:34.842Z,3.40
2017-12-12T12:40:03.073Z,3.40
2017-12-12T12:42:31.625Z,3.40
2017-12-12T12:44:59.066Z,3.50
2017-12-12T12:47:26.568Z,3.60
2017-12-12T12:49:55.029Z,3.60
2017-12-12T12:52:22.513Z,3.50
2017-12-12T12:54:50.956Z,3.60
2017-12-12T12:57:18.398Z,3.60
2017-12-12T12:59:46.613Z,3.50
2017-12-12T13:02:14.838Z,3.50
2017-12-12T13:04:42.281Z,3.50
2017-12-12T13:07:09.733Z,3.40
2017-12-12T13:09:37.206Z,3.30
2017-12-12T13:12:04.646Z,3.30
2017-12-12T13:14:32.147Z,3.10
2017-12-12T13:17:00.345Z,3.00
2017-12-12T13:19:27.840Z,2.90
2017-12-12T13:21:55.532Z,2.90
2017-12-12T13:24:23.737Z,2.80
2017-12-12T13:26:51.198Z,2.70
2017-12-12T13:29:18.635Z,2.70
2017-12-12T13:31:46.107Z,2.70
2017-12-12T13:34:13.532Z,2.70
2017-12-12T13:36:41.747Z,2.70
2017-12-12T13:39:10.318Z,2.60
2017-12-12T13:41:37.787Z,2.70
2017-12-12T13:44:05.231Z,2.70
2017-12-12T13:46:32.782Z,2.60
2017-12-12T13:49:00.989Z,2.70
2017-12-12T13:51:33.634Z,2.70
2017-12-12T13:54:01.850Z,2.70
2017-12-12T13:56:29.309Z,2.70
2017-12-12T13:58:56.764Z,2.80
2017-12-12T14:01:24.196Z,2.90
2017-12-12T14:03:51.648Z,2.90
2017-12-12T14:06:19.087Z,2.90
2017-12-12T14:08:47.305Z,3.00
2017-12-12T14:11:14.753Z,3.00
2017-12-12T14:13:42.196Z,2.90
2017-12-12T14:16:09.656Z,2.80
2017-12-12T14:18:37.101Z,2.80
2017-12-12T14:21:05.309Z,2.80
2017-12-12T14:23:32.766Z,2.80
2017-12-12T14:26:00.228Z,2.80
2017-12-12T14:28:28.619Z,2.80
2017-12-12T14:30:56.061Z,2.70
2017-12-12T14:33:23.502Z,2.70
2017-12-12T14:35:50.944Z,2.60
2017-12-12T14:38:19.153Z,2.50
2017-12-12T14:40:46.602Z,2.50
2017-12-12T14:43:14.057Z,2.40
2017-12-12T14:45:41.514Z,2.40
2017-12-12T14:48:08.994Z,2.40
2017-12-12T14:50:36.449Z,2.30
2017-12-12T14:53:04.155Z,2.30
2017-12-12T14:55:31.618Z,2.20
2017-12-12T14:57:59.061Z,2.20
2017-12-12T15:00:26.572Z,2.20
2017-12-12T15:02:54.022Z,2.20
2017-12-12T15:05:22.771Z,2.10
2017-12-12T15:07:50.230Z,2.00
2017-12-12T15:10:17.677Z,2.00
2017-12-12T15:12:45.142Z,2.00
2017-12-12T15:15:12.594Z,1.90
2017-12-12T15:17:40.042Z,1.90
2017-12-12T15:20:07.491Z,1.90
2017-12-12T15:22:34.950Z,1.80
2017-12-12T15:25:02.399Z,1.80
2017-12-12T15:27:29.839Z,1.80
2017-12-12T15:29:57.280Z,1.80
2017-12-12T15:32:25.548Z,1.80
2017-12-12T15:34:54.550Z,1.80
2017-12-12T15:37:41.289Z,1.80
2017-12-12T15:40:08.749Z,1.80
2017-12-12T15:42:36.204Z,1.80
2017-12-12T15:45:05.502Z,1.70
2017-12-12T15:47:33.714Z,1.70
2017-12-12T15:50:01.175Z,1.70
2017-12-12T15:52:28.626Z,1.70
2017-12-12T15:54:56.113Z,1.70
2017-12-12T15:57:24.008Z,1.80
2017-12-12T15:59:52.226Z,1.80
2017-12-12T16:02:19.669Z,1.80
2017-12-12T16:04:47.122Z,1.90
2017-12-12T16:07:14.579Z,1.80
2017-12-12T16:09:42.048Z,1.90
2017-12-12T16:12:09.497Z,1.90
2017-12-12T16:14:36.973Z,1.80
2017-12-12T16:17:04.445Z,1.80
2017-12-12T16:19:31.888Z,1.80
2017-12-12T16:21:59.351Z,1.80
2017-12-12T16:24:26.795Z,1.80
2017-12-12T16:26:54.251Z,1.80
2017-12-12T16:29:22.349Z,1.80
2017-12-12T16:31:49.789Z,1.80
2017-12-12T16:34:17.245Z,1.80
2017-12-12T16:36:44.689Z,1.80
2017-12-12T16:39:12.717Z,1.80
2017-12-12T16:41:40.174Z,1.80
2017-12-12T16:44:07.622Z,1.70
2017-12-12T16:46:35.078Z,1.80
2017-12-12T16:49:03.501Z,1.80
2017-12-12T16:51:31.032Z,1.70
2017-12-12T16:53:58.470Z,1.70
2017-12-12T16:56:25.921Z,1.60
2017-12-12T16:58:53.370Z,1.60
2017-12-12T17:01:20.837Z,1.60
2017-12-12T17:03:48.287Z,1.60
2017-12-12T17:06:15.765Z,1.60
2017-12-12T17:08:53.943Z,1.50
2017-12-12T17:11:22.153Z,1.50
2017-12-12T17:13:49.593Z,1.50
2017-12-12T17:16:17.097Z,1.50
2017-12-12T17:18:45.305Z,1.40
2017-12-12T17:21:12.752Z,1.40
2017-12-12T17:23:40.204Z,1.40
2017-12-12T17:26:07.654Z,1.40
2017-12-12T17:28:35.103Z,1.50
2017-12-12T17:31:03.305Z,1.50
2017-12-12T17:33:30.756Z,1.40
2017-12-12T17:35:58.202Z,1.50
2017-12-12T17:38:27.226Z,1.50
2017-12-12T17:40:54.662Z,1.60
2017-12-12T17:43:22.117Z,1.60
2017-12-12T17:45:49.637Z,1.60
2017-12-12T17:48:17.109Z,1.60
2017-12-12T17:50:45.319Z,1.60
2017-12-12T17:53:18.628Z,1.50
2017-12-12T17:55:46.077Z,1.50
2017-12-12T17:58:13.521Z,1.60
2017-12-12T18:00:40.978Z,1.60
2017-12-12T18:03:08.425Z,1.60
2017-12-12T18:05:36.663Z,1.50
2017-12-12T18:08:04.106Z,1.50
2017-12-12T18:10:31.563Z,1.50
2017-12-12T18:12:59.007Z,1.50
2017-12-12T18:15:26.473Z,1.50
2017-12-12T18:17:53.920Z,1.50
2017-12-12T18:20:21.375Z,1.50
2017-12-12T18:22:48.825Z,1.40
2017-12-12T18:25:16.264Z,1.40
2017-12-12T18:27:44.509Z,1.40
2017-12-12T18:30:11.930Z,1.40
2017-12-12T18:32:39.380Z,1.40
2017-12-12T18:35:06.825Z,1.40
2017-12-12T18:37:34.337Z,1.40
2017-12-12T18:40:01.787Z,1.40
2017-12-12T18:42:29.243Z,1.30
2017-12-12T18:44:56.690Z,1.30
2017-12-12T18:47:24.133Z,1.20
2017-12-12T18:49:51.590Z,1.20
2017-12-12T18:52:19.048Z,1.30
2017-12-12T18:54:46.498Z,1.20
2017-12-12T18:57:13.942Z,1.20
2017-12-12T18:59:42.156Z,1.30
2017-12-12T19:02:09.624Z,1.20
2017-12-12T19:04:37.074Z,1.20
2017-12-12T19:07:04.537Z,1.30
2017-12-12T19:09:32.003Z,1.20
2017-12-12T19:11:59.452Z,1.20
2017-12-12T19:14:26.911Z,1.30
2017-12-12T19:16:54.358Z,1.30
2017-12-12T19:19:21.796Z,1.20
2017-12-12T19:21:49.253Z,1.20
2017-12-12T19:24:16.739Z,1.20
2017-12-12T19:26:44.274Z,1.20
2017-12-12T19:29:12.491Z,1.30
2017-12-12T19:31:39.952Z,1.30
2017-12-12T19:34:07.397Z,1.30
2017-12-12T19:36:34.891Z,1.20
2017-12-12T19:39:02.351Z,1.20
2017-12-12T19:41:30.611Z,1.20
2017-12-12T19:43:58.061Z,1.10
2017-12-12T19:46:25.510Z,1.10
2017-12-12T19:48:52.981Z,1.20
2017-12-12T19:51:20.425Z,1.10
2017-12-12T19:53:47.898Z,1.10
2017-12-12T19:56:15.350Z,1.10
2017-12-12T19:58:42.854Z,1.10
2017-12-12T20:01:11.158Z,1.10
2017-12-12T20:03:38.631Z,1.10
2017-12-12T20:06:06.136Z,1.10
2017-12-12T20:08:34.383Z,1.00
2017-12-12T20:11:01.895Z,1.00
2017-12-12T20:13:29.416Z,0.90
2017-12-12T20:15:56.827Z,0.90
2017-12-12T20:18:24.345Z,0.80
2017-12-12T20:20:52.586Z,0.80
2017-12-12T20:23:20.122Z,0.80
2017-12-12T20:25:47.627Z,0.80
2017-12-12T20:28:15.090Z,0.80
2017-12-12T20:30:42.562Z,0.80
2017-12-12T20:33:10.848Z,0.80
2017-12-12T20:35:39.066Z,0.80
2017-12-12T20:38:06.544Z,0.80
2017-12-12T20:40:33.995Z,0.80
2017-12-12T20:43:01.525Z,0.80
2017-12-12T20:45:29.019Z,0.70
2017-12-12T20:47:57.274Z,0.70
2017-12-12T20:50:24.800Z,0.70
2017-12-12T20:52:52.263Z,0.80
2017-12-12T20:55:19.707Z,0.80
2017-12-12T20:57:47.928Z,0.90
2017-12-12T21:00:15.426Z,0.90
2017-12-12T21:02:42.855Z,0.90
2017-12-12T21:05:10.376Z,0.90
2017-12-12T21:07:37.891Z,0.90
2017-12-12T21:10:05.396Z,0.90
2017-12-12T21:12:32.898Z,0.90
2017-12-12T21:15:00.345Z,0.90
2017-12-12T21:17:28.825Z,0.90
2017-12-12T21:19:56.302Z,0.90
2017-12-12T21:22:23.856Z,1.00
2017-12-12T21:24:51.302Z,1.00
2017-12-12T21:27:18.849Z,1.00
2017-12-12T21:29:47.122Z,1.00
2017-12-12T21:32:14.573Z,1.00
2017-12-12T21:34:42.054Z,0.90
2017-12-12T21:37:09.522Z,0.90
2017-12-12T21:39:37.029Z,0.90
2017-12-12T21:42:05.299Z,0.90
2017-12-12T21:44:33.535Z,0.90
2017-12-12T21:47:01.023Z,0.80
2017-12-12T21:49:28.620Z,0.80
2017-12-12T21:51:57.493Z,0.70
2017-12-12T21:54:25.800Z,0.70
2017-12-12T21:56:53.292Z,0.70
2017-12-12T21:59:20.725Z,0.70
2017-12-12T22:01:48.238Z,0.70
2017-12-12T22:04:15.727Z,0.70
2017-12-12T22:06:43.191Z,0.60
2017-12-12T22:09:10.695Z,0.60
2017-12-12T22:11:38.197Z,0.50
2017-12-12T22:14:05.720Z,0.40
2017-12-12T22:16:33.218Z,0.30
2017-12-12T22:19:00.734Z,0.30
2017-12-12T22:21:28.178Z,0.20
2017-12-12T22:23:55.629Z,0.10
2017-12-12T22:26:23.148Z,0.10
2017-12-12T22:28:51.578Z,0.10
2017-12-12T22:31:19.068Z,0.10
2017-12-12T22:33:46.585Z,0.00
2017-12-12T22:36:14.934Z,0.00
2017-12-12T22:38:42.414Z,0.00
2017-12-12T22:41:09.876Z,0.00
2017-12-12T22:43:37.943Z,-0.10
2017-12-12T22:46:05.443Z,-0.10
2017-12-12T22:48:32.909Z,-0.10
2017-12-12T22:51:01.371Z,0.00
2017-12-12T22:53:28.841Z,-0.10
2017-12-12T22:55:56.362Z,0.00
2017-12-12T22:58:23.834Z,0.00
2017-12-12T23:00:57.983Z,0.00
2017-12-12T23:03:26.226Z,-0.10
2017-12-12T23:05:53.675Z,-0.10
2017-12-12T23:08:21.293Z,-0.20
2017-12-12T23:10:48.725Z,-0.30
2017-12-12T23:13:16.193Z,-0.40
2017-12-12T23:15:45.366Z,-0.70
2017-12-12T23:18:13.883Z,-0.70
2017-12-12T23:20:55.002Z,-0.80
2017-12-12T23:23:22.491Z,-0.90
2017-12-12T23:25:49.951Z,-1.00
2017-12-12T23:28:17.408Z,-1.00
2017-12-12T23:30:44.883Z,-1.10
2017-12-12T23:33:12.340Z,-1.20
2017-12-12T23:35:53.925Z,-1.20
2017-12-12T23:38:21.394Z,-1.30
2017-12-12T23:40:48.885Z,-1.30
2017-12-12T23:43:16.354Z,-1.30
2017-12-12T23:45:43.823Z,-1.40
2017-12-12T23:48:27.930Z,-1.40
2017-12-12T23:50:57.037Z,-1.50
2017-12-12T23:53:24.550Z,-1.60
2017-12-12T23:55:59.254Z,-1.60
2017-12-12T23:58:26.715Z,-1.60
